sensor_id;sensor_type;location;lat;lon;timestamp;temperature;humidity
21592;DHT22;10958;50.892;3.992;2022-11-20T00:02:15;5.40;99.90
21592;DHT22;10958;50.892;3.992;2022-11-20T00:04:41;5.40;99.90
21592;DHT22;10958;50.892;3.992;2022-11-20T00:07:10;5.60;99.90
21592;DHT22;10958;50.892;3.992;2022-11-20T00:09:38;5.60;99.90
21592;DHT22;10958;50.892;3.992;2022-11-20T00:12:04;5.90;99.90
21592;DHT22;10958;50.892;3.992;2022-11-20T00:14:30;5.90;99.90
21592;DHT22;10958;50.892;3.992;2022-11-20T00:16:56;5.70;99.90
21592;DHT22;10958;50.892;3.992;2022-11-20T00:19:21;5.60;99.90
21592;DHT22;10958;50.892;3.992;2022-11-20T00:21:47;5.40;99.90
21592;DHT22;10958;50.892;3.992;2022-11-20T00:24:16;5.60;99.90
21592;DHT22;10958;50.892;3.992;2022-11-20T00:26:42;5.90;99.90
21592;DHT22;10958;50.892;3.992;2022-11-20T00:29:09;5.90;99.90
21592;DHT22;10958;50.892;3.992;2022-11-20T00:31:35;5.80;99.90
21592;DHT22;10958;50.892;3.992;2022-11-20T00:34:01;6.00;99.90
21592;DHT22;10958;50.892;3.992;2022-11-20T00:36:28;6.10;99.90
21592;DHT22;10958;50.892;3.992;2022-11-20T00:38:56;6.20;99.90
21592;DHT22;10958;50.892;3.992;2022-11-20T00:41:23;6.20;99.90
21592;DHT22;10958;50.892;3.992;2022-11-20T00:43:50;6.10;99.90
21592;DHT22;10958;50.892;3.992;2022-11-20T00:46:18;5.90;99.90
21592;DHT22;10958;50.892;3.992;2022-11-20T00:48:44;5.90;99.90
21592;DHT22;10958;50.892;3.992;2022-11-20T00:51:16;5.80;99.90
21592;DHT22;10958;50.892;3.992;2022-11-20T00:53:42;5.80;99.90
21592;DHT22;10958;50.892;3.992;2022-11-20T00:56:14;5.60;99.90
21592;DHT22;10958;50.892;3.992;2022-11-20T00:58:43;5.70;99.90
21592;DHT22;10958;50.892;3.992;2022-11-20T01:01:27;5.90;99.90
21592;DHT22;10958;50.892;3.992;2022-11-20T01:03:57;6.00;99.90
21592;DHT22;10958;50.892;3.992;2022-11-20T01:06:31;6.00;99.90
21592;DHT22;10958;50.892;3.992;2022-11-20T01:08:59;6.20;99.90
21592;DHT22;10958;50.892;3.992;2022-11-20T01:11:31;6.00;99.90
21592;DHT22;10958;50.892;3.992;2022-11-20T01:17:03;5.40;99.90
21592;DHT22;10958;50.892;3.992;2022-11-20T01:19:40;5.40;99.90
21592;DHT22;10958;50.892;3.992;2022-11-20T01:22:06;5.30;99.90
21592;DHT22;10958;50.892;3.992;2022-11-20T01:24:32;5.20;99.90
21592;DHT22;10958;50.892;3.992;2022-11-20T01:26:58;5.30;99.90
21592;DHT22;10958;50.892;3.992;2022-11-20T01:29:24;5.20;99.90
21592;DHT22;10958;50.892;3.992;2022-11-20T01:31:51;5.20;99.90
21592;DHT22;10958;50.892;3.992;2022-11-20T01:34:21;5.30;99.90
21592;DHT22;10958;50.892;3.992;2022-11-20T01:36:53;5.40;99.90
21592;DHT22;10958;50.892;3.992;2022-11-20T01:39:25;5.70;99.90
21592;DHT22;10958;50.892;3.992;2022-11-20T01:41:52;5.40;99.90
21592;DHT22;10958;50.892;3.992;2022-11-20T01:44:58;5.30;99.90
21592;DHT22;10958;50.892;3.992;2022-11-20T01:47:40;5.10;99.90
21592;DHT22;10958;50.892;3.992;2022-11-20T01:50:19;5.10;99.90
21592;DHT22;10958;50.892;3.992;2022-11-20T01:53:01;4.90;99.90
21592;DHT22;10958;50.892;3.992;2022-11-20T01:55:39;5.10;99.90
21592;DHT22;10958;50.892;3.992;2022-11-20T01:58:06;5.30;99.90
21592;DHT22;10958;50.892;3.992;2022-11-20T02:00:35;5.60;99.90
21592;DHT22;10958;50.892;3.992;2022-11-20T02:03:11;5.70;99.90
21592;DHT22;10958;50.892;3.992;2022-11-20T02:05:45;5.80;99.90
21592;DHT22;10958;50.892;3.992;2022-11-20T02:08:13;5.90;99.90
21592;DHT22;10958;50.892;3.992;2022-11-20T02:10:39;6.00;99.90
21592;DHT22;10958;50.892;3.992;2022-11-20T02:13:05;6.20;99.90
21592;DHT22;10958;50.892;3.992;2022-11-20T02:15:49;6.30;99.90
21592;DHT22;10958;50.892;3.992;2022-11-20T02:18:18;6.20;99.90
21592;DHT22;10958;50.892;3.992;2022-11-20T02:20:47;6.30;99.90
21592;DHT22;10958;50.892;3.992;2022-11-20T02:23:33;6.50;99.90
21592;DHT22;10958;50.892;3.992;2022-11-20T02:26:06;6.50;99.90
21592;DHT22;10958;50.892;3.992;2022-11-20T02:28:33;6.60;99.90
21592;DHT22;10958;50.892;3.992;2022-11-20T02:31:08;6.60;99.90
21592;DHT22;10958;50.892;3.992;2022-11-20T02:33:45;6.20;99.90
21592;DHT22;10958;50.892;3.992;2022-11-20T02:36:14;6.00;99.90
21592;DHT22;10958;50.892;3.992;2022-11-20T02:38:42;5.90;99.90
21592;DHT22;10958;50.892;3.992;2022-11-20T02:41:08;5.90;99.90
21592;DHT22;10958;50.892;3.992;2022-11-20T02:43:34;5.80;99.90
21592;DHT22;10958;50.892;3.992;2022-11-20T02:46:00;5.80;99.90
21592;DHT22;10958;50.892;3.992;2022-11-20T02:48:25;6.10;99.90
21592;DHT22;10958;50.892;3.992;2022-11-20T02:50:51;6.40;99.90
21592;DHT22;10958;50.892;3.992;2022-11-20T02:53:17;6.60;99.90
21592;DHT22;10958;50.892;3.992;2022-11-20T02:55:43;6.80;99.90
21592;DHT22;10958;50.892;3.992;2022-11-20T02:58:09;6.80;99.90
21592;DHT22;10958;50.892;3.992;2022-11-20T03:00:37;6.80;99.90
21592;DHT22;10958;50.892;3.992;2022-11-20T03:03:03;6.70;99.90
21592;DHT22;10958;50.892;3.992;2022-11-20T03:05:28;6.70;99.90
21592;DHT22;10958;50.892;3.992;2022-11-20T03:07:54;6.50;99.90
21592;DHT22;10958;50.892;3.992;2022-11-20T03:10:20;6.50;99.90
21592;DHT22;10958;50.892;3.992;2022-11-20T03:12:46;6.70;99.90
21592;DHT22;10958;50.892;3.992;2022-11-20T03:15:12;6.80;99.90
21592;DHT22;10958;50.892;3.992;2022-11-20T03:17:38;6.90;99.90
21592;DHT22;10958;50.892;3.992;2022-11-20T03:20:07;7.00;99.90
21592;DHT22;10958;50.892;3.992;2022-11-20T03:22:43;6.80;99.90
21592;DHT22;10958;50.892;3.992;2022-11-20T03:25:09;6.70;99.90
21592;DHT22;10958;50.892;3.992;2022-11-20T03:27:35;6.70;99.90
21592;DHT22;10958;50.892;3.992;2022-11-20T03:30:01;6.90;99.90
21592;DHT22;10958;50.892;3.992;2022-11-20T03:32:31;6.90;99.90
21592;DHT22;10958;50.892;3.992;2022-11-20T03:34:57;7.00;99.90
21592;DHT22;10958;50.892;3.992;2022-11-20T03:37:23;6.80;99.90
21592;DHT22;10958;50.892;3.992;2022-11-20T03:39:51;6.70;99.90
21592;DHT22;10958;50.892;3.992;2022-11-20T03:42:17;6.70;99.90
21592;DHT22;10958;50.892;3.992;2022-11-20T03:45:02;6.70;99.90
21592;DHT22;10958;50.892;3.992;2022-11-20T03:47:48;6.70;99.90
21592;DHT22;10958;50.892;3.992;2022-11-20T03:50:14;6.70;99.90
21592;DHT22;10958;50.892;3.992;2022-11-20T03:52:40;6.80;99.90
21592;DHT22;10958;50.892;3.992;2022-11-20T03:55:06;6.90;99.90
21592;DHT22;10958;50.892;3.992;2022-11-20T03:57:32;6.90;99.90
21592;DHT22;10958;50.892;3.992;2022-11-20T04:00:04;6.90;99.90
21592;DHT22;10958;50.892;3.992;2022-11-20T04:02:30;6.90;99.90
21592;DHT22;10958;50.892;3.992;2022-11-20T04:04:56;6.70;99.90
21592;DHT22;10958;50.892;3.992;2022-11-20T04:07:25;6.80;99.90
21592;DHT22;10958;50.892;3.992;2022-11-20T04:09:50;6.70;99.90
21592;DHT22;10958;50.892;3.992;2022-11-20T04:12:16;6.80;99.90
21592;DHT22;10958;50.892;3.992;2022-11-20T04:14:45;6.80;99.90
21592;DHT22;10958;50.892;3.992;2022-11-20T04:17:11;6.70;99.90
21592;DHT22;10958;50.892;3.992;2022-11-20T04:19:37;6.80;99.90
21592;DHT22;10958;50.892;3.992;2022-11-20T04:22:03;6.90;99.90
21592;DHT22;10958;50.892;3.992;2022-11-20T04:24:31;6.90;99.90
21592;DHT22;10958;50.892;3.992;2022-11-20T04:26:57;6.80;99.90
21592;DHT22;10958;50.892;3.992;2022-11-20T04:29:31;6.80;99.90
21592;DHT22;10958;50.892;3.992;2022-11-20T04:32:31;6.70;99.90
21592;DHT22;10958;50.892;3.992;2022-11-20T04:35:07;6.70;99.90
21592;DHT22;10958;50.892;3.992;2022-11-20T04:37:37;6.80;99.90
21592;DHT22;10958;50.892;3.992;2022-11-20T04:40:12;6.90;99.90
21592;DHT22;10958;50.892;3.992;2022-11-20T04:42:38;6.80;99.90
21592;DHT22;10958;50.892;3.992;2022-11-20T04:45:04;6.90;99.90
21592;DHT22;10958;50.892;3.992;2022-11-20T04:47:30;6.80;99.90
21592;DHT22;10958;50.892;3.992;2022-11-20T04:49:55;6.80;99.90
21592;DHT22;10958;50.892;3.992;2022-11-20T04:52:22;6.80;99.90
21592;DHT22;10958;50.892;3.992;2022-11-20T04:54:48;6.60;99.90
21592;DHT22;10958;50.892;3.992;2022-11-20T04:57:14;6.50;99.90
21592;DHT22;10958;50.892;3.992;2022-11-20T04:59:40;6.40;99.90
21592;DHT22;10958;50.892;3.992;2022-11-20T05:02:06;6.40;99.90
21592;DHT22;10958;50.892;3.992;2022-11-20T05:04:50;6.60;99.90
21592;DHT22;10958;50.892;3.992;2022-11-20T05:07:15;6.70;99.90
21592;DHT22;10958;50.892;3.992;2022-11-20T05:09:48;6.70;99.90
21592;DHT22;10958;50.892;3.992;2022-11-20T05:12:49;6.70;99.90
21592;DHT22;10958;50.892;3.992;2022-11-20T05:15:32;6.80;99.90
21592;DHT22;10958;50.892;3.992;2022-11-20T05:18:01;7.00;99.90
21592;DHT22;10958;50.892;3.992;2022-11-20T05:20:27;7.00;99.90
21592;DHT22;10958;50.892;3.992;2022-11-20T05:22:56;6.90;99.90
21592;DHT22;10958;50.892;3.992;2022-11-20T05:25:22;6.80;99.90
21592;DHT22;10958;50.892;3.992;2022-11-20T05:27:48;6.80;99.90
21592;DHT22;10958;50.892;3.992;2022-11-20T05:30:15;6.80;99.90
21592;DHT22;10958;50.892;3.992;2022-11-20T05:32:41;6.70;99.90
21592;DHT22;10958;50.892;3.992;2022-11-20T05:35:07;6.60;99.90
21592;DHT22;10958;50.892;3.992;2022-11-20T05:37:32;6.60;99.90
21592;DHT22;10958;50.892;3.992;2022-11-20T05:39:58;6.50;99.90
21592;DHT22;10958;50.892;3.992;2022-11-20T05:42:24;6.40;99.90
21592;DHT22;10958;50.892;3.992;2022-11-20T05:45:00;6.30;99.90
21592;DHT22;10958;50.892;3.992;2022-11-20T05:47:28;6.30;99.90
21592;DHT22;10958;50.892;3.992;2022-11-20T05:49:56;6.50;99.90
21592;DHT22;10958;50.892;3.992;2022-11-20T05:52:22;6.50;99.90
21592;DHT22;10958;50.892;3.992;2022-11-20T05:54:48;6.30;99.90
21592;DHT22;10958;50.892;3.992;2022-11-20T05:57:14;6.30;99.90
21592;DHT22;10958;50.892;3.992;2022-11-20T05:59:40;6.30;99.90
21592;DHT22;10958;50.892;3.992;2022-11-20T06:02:08;6.30;99.90
21592;DHT22;10958;50.892;3.992;2022-11-20T06:04:34;6.50;99.90
21592;DHT22;10958;50.892;3.992;2022-11-20T06:06:59;6.60;99.90
21592;DHT22;10958;50.892;3.992;2022-11-20T06:09:25;6.60;99.90
21592;DHT22;10958;50.892;3.992;2022-11-20T06:11:51;6.70;99.90
21592;DHT22;10958;50.892;3.992;2022-11-20T06:14:17;6.60;99.90
21592;DHT22;10958;50.892;3.992;2022-11-20T06:16:42;6.70;99.90
21592;DHT22;10958;50.892;3.992;2022-11-20T06:19:08;6.70;99.90
21592;DHT22;10958;50.892;3.992;2022-11-20T06:21:34;6.70;99.90
21592;DHT22;10958;50.892;3.992;2022-11-20T06:24:00;6.70;99.90
21592;DHT22;10958;50.892;3.992;2022-11-20T06:26:27;6.80;99.90
21592;DHT22;10958;50.892;3.992;2022-11-20T06:28:56;6.90;99.90
21592;DHT22;10958;50.892;3.992;2022-11-20T06:31:23;6.90;99.90
21592;DHT22;10958;50.892;3.992;2022-11-20T06:33:51;6.90;99.90
21592;DHT22;10958;50.892;3.992;2022-11-20T06:36:19;6.80;99.90
21592;DHT22;10958;50.892;3.992;2022-11-20T06:38:48;6.90;99.90
21592;DHT22;10958;50.892;3.992;2022-11-20T06:41:22;6.90;99.90
21592;DHT22;10958;50.892;3.992;2022-11-20T06:43:48;6.90;99.90
21592;DHT22;10958;50.892;3.992;2022-11-20T06:46:15;7.00;99.90
21592;DHT22;10958;50.892;3.992;2022-11-20T06:48:44;6.80;99.90
21592;DHT22;10958;50.892;3.992;2022-11-20T06:51:10;6.70;99.90
21592;DHT22;10958;50.892;3.992;2022-11-20T06:53:37;6.80;99.90
21592;DHT22;10958;50.892;3.992;2022-11-20T06:56:06;6.70;99.90
21592;DHT22;10958;50.892;3.992;2022-11-20T06:58:33;6.70;99.90
21592;DHT22;10958;50.892;3.992;2022-11-20T07:01:04;6.80;99.90
21592;DHT22;10958;50.892;3.992;2022-11-20T07:03:29;6.90;99.90
21592;DHT22;10958;50.892;3.992;2022-11-20T07:05:56;7.10;99.90
21592;DHT22;10958;50.892;3.992;2022-11-20T07:08:22;7.20;99.90
21592;DHT22;10958;50.892;3.992;2022-11-20T07:10:50;7.30;99.90
21592;DHT22;10958;50.892;3.992;2022-11-20T07:13:18;7.40;99.90
21592;DHT22;10958;50.892;3.992;2022-11-20T07:15:44;7.00;99.90
21592;DHT22;10958;50.892;3.992;2022-11-20T07:18:10;6.80;99.90
21592;DHT22;10958;50.892;3.992;2022-11-20T07:20:50;6.80;99.90
21592;DHT22;10958;50.892;3.992;2022-11-20T07:23:16;6.80;99.90
21592;DHT22;10958;50.892;3.992;2022-11-20T07:25:42;6.80;99.90
21592;DHT22;10958;50.892;3.992;2022-11-20T07:28:07;6.80;99.90
21592;DHT22;10958;50.892;3.992;2022-11-20T07:30:33;6.90;99.90
21592;DHT22;10958;50.892;3.992;2022-11-20T07:33:01;6.90;99.90
21592;DHT22;10958;50.892;3.992;2022-11-20T07:35:29;6.90;99.90
21592;DHT22;10958;50.892;3.992;2022-11-20T07:37:55;6.80;99.90
21592;DHT22;10958;50.892;3.992;2022-11-20T07:40:21;6.60;99.90
21592;DHT22;10958;50.892;3.992;2022-11-20T07:42:51;6.70;99.90
21592;DHT22;10958;50.892;3.992;2022-11-20T07:45:18;6.50;99.90
21592;DHT22;10958;50.892;3.992;2022-11-20T07:47:44;6.70;99.90
21592;DHT22;10958;50.892;3.992;2022-11-20T07:50:12;6.80;99.90
21592;DHT22;10958;50.892;3.992;2022-11-20T07:52:38;6.90;99.90
21592;DHT22;10958;50.892;3.992;2022-11-20T07:55:05;6.90;99.90
21592;DHT22;10958;50.892;3.992;2022-11-20T07:57:31;6.90;99.90
21592;DHT22;10958;50.892;3.992;2022-11-20T08:00:00;6.90;99.90
21592;DHT22;10958;50.892;3.992;2022-11-20T08:02:26;7.00;99.90
21592;DHT22;10958;50.892;3.992;2022-11-20T08:04:51;7.00;99.90
21592;DHT22;10958;50.892;3.992;2022-11-20T08:07:17;7.00;99.90
21592;DHT22;10958;50.892;3.992;2022-11-20T08:09:45;7.10;99.90
21592;DHT22;10958;50.892;3.992;2022-11-20T08:12:19;7.10;99.90
21592;DHT22;10958;50.892;3.992;2022-11-20T08:15:05;6.90;99.90
21592;DHT22;10958;50.892;3.992;2022-11-20T08:17:31;6.90;99.90
21592;DHT22;10958;50.892;3.992;2022-11-20T08:19:58;6.90;99.90
21592;DHT22;10958;50.892;3.992;2022-11-20T08:22:37;6.90;99.90
21592;DHT22;10958;50.892;3.992;2022-11-20T08:25:06;6.90;99.90
21592;DHT22;10958;50.892;3.992;2022-11-20T08:27:53;6.80;99.90
21592;DHT22;10958;50.892;3.992;2022-11-20T08:30:29;6.90;99.90
21592;DHT22;10958;50.892;3.992;2022-11-20T08:33:03;6.80;99.90
21592;DHT22;10958;50.892;3.992;2022-11-20T08:35:33;6.90;99.90
21592;DHT22;10958;50.892;3.992;2022-11-20T08:38:00;7.10;99.90
21592;DHT22;10958;50.892;3.992;2022-11-20T08:40:26;7.10;99.90
21592;DHT22;10958;50.892;3.992;2022-11-20T08:42:52;7.10;99.90
21592;DHT22;10958;50.892;3.992;2022-11-20T08:45:19;7.10;99.90
21592;DHT22;10958;50.892;3.992;2022-11-20T08:47:45;7.10;99.90
21592;DHT22;10958;50.892;3.992;2022-11-20T08:50:13;7.00;99.90
21592;DHT22;10958;50.892;3.992;2022-11-20T08:52:39;7.20;99.90
21592;DHT22;10958;50.892;3.992;2022-11-20T08:55:08;7.10;99.90
21592;DHT22;10958;50.892;3.992;2022-11-20T08:57:37;7.20;99.90
21592;DHT22;10958;50.892;3.992;2022-11-20T09:00:07;7.20;99.90
21592;DHT22;10958;50.892;3.992;2022-11-20T09:02:34;7.30;99.90
21592;DHT22;10958;50.892;3.992;2022-11-20T09:04:59;7.40;99.90
21592;DHT22;10958;50.892;3.992;2022-11-20T09:07:28;7.50;99.90
21592;DHT22;10958;50.892;3.992;2022-11-20T09:09:53;7.50;99.90
21592;DHT22;10958;50.892;3.992;2022-11-20T09:12:21;7.60;99.90
21592;DHT22;10958;50.892;3.992;2022-11-20T09:14:46;7.80;99.90
21592;DHT22;10958;50.892;3.992;2022-11-20T09:17:12;7.90;99.90
21592;DHT22;10958;50.892;3.992;2022-11-20T09:19:40;7.90;99.90
21592;DHT22;10958;50.892;3.992;2022-11-20T09:22:06;8.00;99.90
21592;DHT22;10958;50.892;3.992;2022-11-20T09:24:34;8.10;99.90
21592;DHT22;10958;50.892;3.992;2022-11-20T09:27:10;8.10;99.90
21592;DHT22;10958;50.892;3.992;2022-11-20T09:29:36;8.00;99.90
21592;DHT22;10958;50.892;3.992;2022-11-20T09:32:02;8.00;99.90
21592;DHT22;10958;50.892;3.992;2022-11-20T09:34:28;8.00;99.90
21592;DHT22;10958;50.892;3.992;2022-11-20T09:36:54;7.90;99.90
21592;DHT22;10958;50.892;3.992;2022-11-20T09:39:22;7.90;99.90
21592;DHT22;10958;50.892;3.992;2022-11-20T09:42:01;7.90;99.90
21592;DHT22;10958;50.892;3.992;2022-11-20T09:47:38;8.10;99.90
21592;DHT22;10958;50.892;3.992;2022-11-20T09:52:57;8.20;99.90
21592;DHT22;10958;50.892;3.992;2022-11-20T09:55:30;8.30;99.90
21592;DHT22;10958;50.892;3.992;2022-11-20T09:57:58;8.40;99.90
21592;DHT22;10958;50.892;3.992;2022-11-20T10:00:24;8.40;99.90
21592;DHT22;10958;50.892;3.992;2022-11-20T10:03:14;8.20;99.90
21592;DHT22;10958;50.892;3.992;2022-11-20T10:05:46;8.20;99.90
21592;DHT22;10958;50.892;3.992;2022-11-20T10:08:25;8.20;99.90
21592;DHT22;10958;50.892;3.992;2022-11-20T10:20:43;8.60;99.90
21592;DHT22;10958;50.892;3.992;2022-11-20T10:29:11;8.50;99.90
21592;DHT22;10958;50.892;3.992;2022-11-20T10:31:40;8.60;99.90
21592;DHT22;10958;50.892;3.992;2022-11-20T10:34:56;8.70;99.90
21592;DHT22;10958;50.892;3.992;2022-11-20T10:37:17;8.70;99.90
21592;DHT22;10958;50.892;3.992;2022-11-20T10:42:57;8.60;99.90
21592;DHT22;10958;50.892;3.992;2022-11-20T10:51:06;8.80;99.90
21592;DHT22;10958;50.892;3.992;2022-11-20T10:55:58;8.90;99.90
21592;DHT22;10958;50.892;3.992;2022-11-20T10:58:39;8.90;99.90
21592;DHT22;10958;50.892;3.992;2022-11-20T11:14:14;8.90;99.90
21592;DHT22;10958;50.892;3.992;2022-11-20T11:16:59;9.10;99.90
21592;DHT22;10958;50.892;3.992;2022-11-20T11:19:24;9.00;99.90
21592;DHT22;10958;50.892;3.992;2022-11-20T11:21:55;9.00;99.90
21592;DHT22;10958;50.892;3.992;2022-11-20T11:24:31;9.00;99.90
21592;DHT22;10958;50.892;3.992;2022-11-20T11:27:02;8.90;99.90
21592;DHT22;10958;50.892;3.992;2022-11-20T11:29:30;9.00;99.90
21592;DHT22;10958;50.892;3.992;2022-11-20T11:32:13;9.10;99.90
21592;DHT22;10958;50.892;3.992;2022-11-20T11:34:39;9.10;99.90
21592;DHT22;10958;50.892;3.992;2022-11-20T11:37:19;9.00;99.90
21592;DHT22;10958;50.892;3.992;2022-11-20T11:39:50;8.90;99.90
21592;DHT22;10958;50.892;3.992;2022-11-20T11:42:18;8.90;99.90
21592;DHT22;10958;50.892;3.992;2022-11-20T11:44:46;8.80;99.90
21592;DHT22;10958;50.892;3.992;2022-11-20T11:47:46;8.80;99.90
21592;DHT22;10958;50.892;3.992;2022-11-20T11:50:26;8.70;99.90
21592;DHT22;10958;50.892;3.992;2022-11-20T11:58:14;8.50;99.90
21592;DHT22;10958;50.892;3.992;2022-11-20T12:00:54;8.50;99.90
21592;DHT22;10958;50.892;3.992;2022-11-20T12:03:27;8.50;99.90
21592;DHT22;10958;50.892;3.992;2022-11-20T12:06:02;8.40;99.90
21592;DHT22;10958;50.892;3.992;2022-11-20T12:08:52;8.50;99.90
21592;DHT22;10958;50.892;3.992;2022-11-20T12:14:03;8.30;99.90
21592;DHT22;10958;50.892;3.992;2022-11-20T12:16:35;8.40;99.90
21592;DHT22;10958;50.892;3.992;2022-11-20T12:19:08;8.50;99.90
21592;DHT22;10958;50.892;3.992;2022-11-20T12:21:55;8.40;99.90
21592;DHT22;10958;50.892;3.992;2022-11-20T12:30:11;8.70;99.90
21592;DHT22;10958;50.892;3.992;2022-11-20T12:35:48;8.80;99.90
21592;DHT22;10958;50.892;3.992;2022-11-20T12:43:24;8.80;99.90
21592;DHT22;10958;50.892;3.992;2022-11-20T12:46:31;8.80;99.90
21592;DHT22;10958;50.892;3.992;2022-11-20T12:49:05;8.90;99.90
21592;DHT22;10958;50.892;3.992;2022-11-20T13:02:59;8.60;99.90
21592;DHT22;10958;50.892;3.992;2022-11-20T13:05:54;8.70;99.90
21592;DHT22;10958;50.892;3.992;2022-11-20T13:08:27;8.60;99.90
21592;DHT22;10958;50.892;3.992;2022-11-20T13:10:56;8.60;99.90
21592;DHT22;10958;50.892;3.992;2022-11-20T13:18:40;8.60;99.90
21592;DHT22;10958;50.892;3.992;2022-11-20T13:27:18;8.50;99.90
21592;DHT22;10958;50.892;3.992;2022-11-20T13:29:47;8.60;99.90
21592;DHT22;10958;50.892;3.992;2022-11-20T13:32:24;8.50;99.90
21592;DHT22;10958;50.892;3.992;2022-11-20T13:35:01;8.40;99.90
21592;DHT22;10958;50.892;3.992;2022-11-20T13:37:36;8.50;99.90
21592;DHT22;10958;50.892;3.992;2022-11-20T13:40:25;8.50;99.90
21592;DHT22;10958;50.892;3.992;2022-11-20T13:45:38;8.70;99.90
21592;DHT22;10958;50.892;3.992;2022-11-20T13:48:20;8.70;99.90
21592;DHT22;10958;50.892;3.992;2022-11-20T13:56:19;8.60;99.90
21592;DHT22;10958;50.892;3.992;2022-11-20T14:01:42;8.70;99.90
21592;DHT22;10958;50.892;3.992;2022-11-20T14:04:17;8.60;99.90
21592;DHT22;10958;50.892;3.992;2022-11-20T14:06:46;8.60;99.90
21592;DHT22;10958;50.892;3.992;2022-11-20T14:09:24;8.60;99.90
21592;DHT22;10958;50.892;3.992;2022-11-20T14:11:51;8.60;99.90
21592;DHT22;10958;50.892;3.992;2022-11-20T14:14:19;8.60;99.90
21592;DHT22;10958;50.892;3.992;2022-11-20T14:16:46;8.60;99.90
21592;DHT22;10958;50.892;3.992;2022-11-20T14:19:28;8.60;99.90
21592;DHT22;10958;50.892;3.992;2022-11-20T14:22:20;8.70;99.90
21592;DHT22;10958;50.892;3.992;2022-11-20T14:24:48;8.70;99.90
21592;DHT22;10958;50.892;3.992;2022-11-20T14:27:19;8.60;99.90
21592;DHT22;10958;50.892;3.992;2022-11-20T14:29:47;8.60;99.90
21592;DHT22;10958;50.892;3.992;2022-11-20T14:32:19;8.70;99.90
21592;DHT22;10958;50.892;3.992;2022-11-20T14:34:50;8.70;99.90
21592;DHT22;10958;50.892;3.992;2022-11-20T14:37:24;8.80;99.90
21592;DHT22;10958;50.892;3.992;2022-11-20T14:39:53;9.00;99.90
21592;DHT22;10958;50.892;3.992;2022-11-20T14:42:44;9.00;99.90
21592;DHT22;10958;50.892;3.992;2022-11-20T14:45:12;9.10;99.90
21592;DHT22;10958;50.892;3.992;2022-11-20T14:47:39;9.20;99.90
21592;DHT22;10958;50.892;3.992;2022-11-20T14:50:24;9.20;99.90
21592;DHT22;10958;50.892;3.992;2022-11-20T14:52:54;9.20;99.90
21592;DHT22;10958;50.892;3.992;2022-11-20T14:55:31;9.30;99.90
21592;DHT22;10958;50.892;3.992;2022-11-20T14:58:04;9.40;99.90
21592;DHT22;10958;50.892;3.992;2022-11-20T15:00:32;9.30;99.90
21592;DHT22;10958;50.892;3.992;2022-11-20T15:02:58;9.30;99.90
21592;DHT22;10958;50.892;3.992;2022-11-20T15:05:44;9.40;99.90
21592;DHT22;10958;50.892;3.992;2022-11-20T15:08:11;9.40;99.90
21592;DHT22;10958;50.892;3.992;2022-11-20T15:10:48;9.40;99.90
21592;DHT22;10958;50.892;3.992;2022-11-20T15:13:29;9.40;99.90
21592;DHT22;10958;50.892;3.992;2022-11-20T15:15:58;9.50;99.90
21592;DHT22;10958;50.892;3.992;2022-11-20T15:18:32;9.50;99.90
21592;DHT22;10958;50.892;3.992;2022-11-20T15:21:05;9.70;99.90
21592;DHT22;10958;50.892;3.992;2022-11-20T15:23:35;9.50;99.90
21592;DHT22;10958;50.892;3.992;2022-11-20T15:26:01;9.50;99.90
21592;DHT22;10958;50.892;3.992;2022-11-20T15:28:31;9.50;99.90
21592;DHT22;10958;50.892;3.992;2022-11-20T15:30:59;9.60;99.90
21592;DHT22;10958;50.892;3.992;2022-11-20T15:33:26;9.60;99.90
21592;DHT22;10958;50.892;3.992;2022-11-20T15:35:55;9.50;99.90
21592;DHT22;10958;50.892;3.992;2022-11-20T15:38:22;9.40;99.90
21592;DHT22;10958;50.892;3.992;2022-11-20T15:40:48;9.40;99.90
21592;DHT22;10958;50.892;3.992;2022-11-20T15:43:14;9.30;99.90
21592;DHT22;10958;50.892;3.992;2022-11-20T15:45:48;9.40;99.90
21592;DHT22;10958;50.892;3.992;2022-11-20T15:48:20;9.40;99.90
21592;DHT22;10958;50.892;3.992;2022-11-20T15:50:56;9.40;99.90
21592;DHT22;10958;50.892;3.992;2022-11-20T15:53:23;9.40;99.90
21592;DHT22;10958;50.892;3.992;2022-11-20T15:55:50;9.40;99.90
21592;DHT22;10958;50.892;3.992;2022-11-20T15:58:18;9.40;99.90
21592;DHT22;10958;50.892;3.992;2022-11-20T16:00:44;9.50;99.90
21592;DHT22;10958;50.892;3.992;2022-11-20T16:03:11;9.50;99.90
21592;DHT22;10958;50.892;3.992;2022-11-20T16:05:37;9.50;99.90
21592;DHT22;10958;50.892;3.992;2022-11-20T16:08:03;9.40;99.90
21592;DHT22;10958;50.892;3.992;2022-11-20T16:10:29;9.30;99.90
21592;DHT22;10958;50.892;3.992;2022-11-20T16:12:56;9.20;99.90
21592;DHT22;10958;50.892;3.992;2022-11-20T16:15:40;9.10;99.90
21592;DHT22;10958;50.892;3.992;2022-11-20T16:18:16;9.00;99.90
21592;DHT22;10958;50.892;3.992;2022-11-20T16:20:43;9.00;99.90
21592;DHT22;10958;50.892;3.992;2022-11-20T16:23:09;9.00;99.90
21592;DHT22;10958;50.892;3.992;2022-11-20T16:25:35;9.00;99.90
21592;DHT22;10958;50.892;3.992;2022-11-20T16:28:01;8.90;99.90
21592;DHT22;10958;50.892;3.992;2022-11-20T16:30:27;9.00;99.90
21592;DHT22;10958;50.892;3.992;2022-11-20T16:32:53;9.00;99.90
21592;DHT22;10958;50.892;3.992;2022-11-20T16:35:20;8.90;99.90
21592;DHT22;10958;50.892;3.992;2022-11-20T16:37:46;9.00;99.90
21592;DHT22;10958;50.892;3.992;2022-11-20T16:40:12;9.00;99.90
21592;DHT22;10958;50.892;3.992;2022-11-20T16:42:38;9.10;99.90
21592;DHT22;10958;50.892;3.992;2022-11-20T16:45:05;9.10;99.90
21592;DHT22;10958;50.892;3.992;2022-11-20T16:47:34;9.10;99.90
21592;DHT22;10958;50.892;3.992;2022-11-20T16:50:01;9.10;99.90
21592;DHT22;10958;50.892;3.992;2022-11-20T16:52:27;9.10;99.90
21592;DHT22;10958;50.892;3.992;2022-11-20T16:54:54;9.10;99.90
21592;DHT22;10958;50.892;3.992;2022-11-20T16:57:23;9.10;99.90
21592;DHT22;10958;50.892;3.992;2022-11-20T16:59:50;9.00;99.90
21592;DHT22;10958;50.892;3.992;2022-11-20T17:02:26;9.00;99.90
21592;DHT22;10958;50.892;3.992;2022-11-20T17:04:56;9.00;99.90
21592;DHT22;10958;50.892;3.992;2022-11-20T17:07:22;9.00;99.90
21592;DHT22;10958;50.892;3.992;2022-11-20T17:09:48;9.00;99.90
21592;DHT22;10958;50.892;3.992;2022-11-20T17:12:17;9.00;99.90
21592;DHT22;10958;50.892;3.992;2022-11-20T17:14:43;9.00;99.90
21592;DHT22;10958;50.892;3.992;2022-11-20T17:17:09;9.10;99.90
21592;DHT22;10958;50.892;3.992;2022-11-20T17:19:40;8.90;99.90
21592;DHT22;10958;50.892;3.992;2022-11-20T17:22:06;8.90;99.90
21592;DHT22;10958;50.892;3.992;2022-11-20T17:24:33;9.00;99.90
21592;DHT22;10958;50.892;3.992;2022-11-20T17:26:59;9.00;99.90
21592;DHT22;10958;50.892;3.992;2022-11-20T17:29:26;9.00;99.90
21592;DHT22;10958;50.892;3.992;2022-11-20T17:31:52;9.10;99.90
21592;DHT22;10958;50.892;3.992;2022-11-20T17:34:19;9.00;99.90
21592;DHT22;10958;50.892;3.992;2022-11-20T17:36:45;9.00;99.90
21592;DHT22;10958;50.892;3.992;2022-11-20T17:39:12;9.00;99.90
21592;DHT22;10958;50.892;3.992;2022-11-20T17:41:38;9.00;99.90
21592;DHT22;10958;50.892;3.992;2022-11-20T17:44:04;9.00;99.90
21592;DHT22;10958;50.892;3.992;2022-11-20T17:46:31;9.10;99.90
21592;DHT22;10958;50.892;3.992;2022-11-20T17:49:06;9.10;99.90